createdAt,value
2022-08-17T00:01:44.953Z,24.50
2022-08-17T00:04:19.482Z,24.60
2022-08-17T00:06:49.118Z,24.60
2022-08-17T00:09:19.125Z,24.70
2022-08-17T00:12:35.058Z,24.60
2022-08-17T00:14:36.157Z,24.60
2022-08-17T00:17:04.801Z,24.60
2022-08-17T00:19:32.947Z,24.60
2022-08-17T00:22:34.159Z,24.60
2022-08-17T00:24:50.650Z,24.60
2022-08-17T00:27:18.315Z,24.70
2022-08-17T00:29:45.968Z,24.60
2022-08-17T00:33:14.162Z,24.60
2022-08-17T00:35:04.496Z,24.60
2022-08-17T00:37:31.749Z,24.60
2022-08-17T00:39:59.166Z,24.60
2022-08-17T00:42:30.463Z,24.60
2022-08-17T00:44:58.725Z,24.60
2022-08-17T00:47:25.972Z,24.70
2022-08-17T00:49:53.984Z,24.60
2022-08-17T00:52:23.187Z,24.70
2022-08-17T00:54:53.290Z,24.60
2022-08-17T00:57:26.336Z,24.60
2022-08-17T01:00:02.025Z,24.60
2022-08-17T01:02:43.125Z,24.60
2022-08-17T01:05:14.822Z,24.60
2022-08-17T01:07:43.080Z,24.50
2022-08-17T01:10:59.824Z,24.60
2022-08-17T01:13:00.486Z,24.50
2022-08-17T01:15:28.593Z,24.50
2022-08-17T01:17:56.307Z,24.50
2022-08-17T01:20:23.604Z,24.40
2022-08-17T01:22:50.971Z,24.40
2022-08-17T01:25:19.337Z,24.40
2022-08-17T01:27:47.254Z,24.50
2022-08-17T01:30:56.661Z,24.50
2022-08-17T01:33:01.827Z,24.50
2022-08-17T01:35:29.175Z,24.50
2022-08-17T01:37:56.354Z,24.60
2022-08-17T01:40:29.022Z,24.60
2022-08-17T01:42:57.315Z,24.50
2022-08-17T01:45:30.473Z,24.60
2022-08-17T01:47:57.877Z,24.50
2022-08-17T01:50:30.199Z,24.50
2022-08-17T01:52:59.904Z,24.40
2022-08-17T01:55:30.669Z,24.50
2022-08-17T01:57:58.228Z,24.40
2022-08-17T02:00:27.227Z,24.30
2022-08-17T02:03:14.438Z,24.20
2022-08-17T02:05:41.675Z,24.10
2022-08-17T02:08:09.049Z,24.10
2022-08-17T02:10:48.458Z,24.00
2022-08-17T02:13:16.107Z,23.90
2022-08-17T02:15:43.797Z,23.90
2022-08-17T02:18:11.211Z,23.80
2022-08-17T02:20:42.343Z,23.80
2022-08-17T02:23:11.916Z,23.90
2022-08-17T02:25:40.029Z,23.50
2022-08-17T02:28:07.315Z,23.50
2022-08-17T02:30:59.406Z,23.40
2022-08-17T02:33:22.281Z,23.10
2022-08-17T02:35:49.617Z,22.90
2022-08-17T02:38:17.469Z,22.60
2022-08-17T02:40:45.043Z,22.70
2022-08-17T02:43:13.764Z,22.60
2022-08-17T02:45:40.981Z,22.60
2022-08-17T02:48:08.449Z,22.60
2022-08-17T02:50:35.905Z,22.70
2022-08-17T02:53:04.765Z,22.60
2022-08-17T02:55:37.302Z,22.50
2022-08-17T02:58:05.118Z,22.30
2022-08-17T03:00:37.540Z,22.20
2022-08-17T03:03:05.526Z,22.20
2022-08-17T03:05:34.515Z,22.20
2022-08-17T03:08:02.243Z,22.30
2022-08-17T03:10:29.856Z,22.30
2022-08-17T03:12:57.305Z,22.40
2022-08-17T03:15:26.177Z,22.20
2022-08-17T03:17:54.228Z,22.30
2022-08-17T03:20:21.534Z,22.20
2022-08-17T03:22:53.627Z,22.00
2022-08-17T03:25:25.167Z,22.00
2022-08-17T03:27:52.477Z,22.20
2022-08-17T03:30:22.398Z,22.20
2022-08-17T03:32:50.516Z,22.10
2022-08-17T03:35:19.556Z,22.10
2022-08-17T03:37:46.846Z,22.40
2022-08-17T03:40:37.005Z,22.70
2022-08-17T03:43:11.476Z,22.80
2022-08-17T03:45:57.732Z,22.90
2022-08-17T03:48:43.719Z,23.00
2022-08-17T03:51:34.318Z,23.00
2022-08-17T03:54:20.240Z,23.10
2022-08-17T03:56:49.762Z,23.10
2022-08-17T03:59:20.862Z,23.20
2022-08-17T04:01:52.336Z,23.20
2022-08-17T04:04:20.883Z,23.20
2022-08-17T04:06:55.118Z,23.20
2022-08-17T04:09:22.448Z,23.20
2022-08-17T04:11:49.858Z,23.00
2022-08-17T04:14:17.565Z,22.80
2022-08-17T04:16:47.079Z,22.60
2022-08-17T04:19:14.330Z,22.40
2022-08-17T04:21:41.592Z,22.20
2022-08-17T04:24:08.921Z,22.10
2022-08-17T04:26:53.196Z,22.00
2022-08-17T04:29:21.611Z,21.90
2022-08-17T04:31:48.824Z,21.70
2022-08-17T04:34:19.665Z,21.70
2022-08-17T04:36:50.384Z,21.70
2022-08-17T04:39:17.858Z,21.70
2022-08-17T04:42:03.681Z,21.70
2022-08-17T04:44:38.033Z,21.90
2022-08-17T04:47:07.178Z,22.00
2022-08-17T04:49:38.053Z,21.80
2022-08-17T04:52:05.303Z,21.90
2022-08-17T04:54:32.671Z,22.20
2022-08-17T04:56:59.989Z,22.50
2022-08-17T04:59:27.206Z,22.50
2022-08-17T05:01:54.761Z,22.70
2022-08-17T05:04:33.802Z,22.90
2022-08-17T05:07:02.144Z,23.00
2022-08-17T05:09:29.361Z,23.00
2022-08-17T05:12:00.130Z,23.20
2022-08-17T05:14:27.304Z,23.20
2022-08-17T05:17:01.710Z,23.20
2022-08-17T05:19:34.674Z,23.20
2022-08-17T05:22:05.634Z,23.20
2022-08-17T05:24:42.850Z,23.30
2022-08-17T05:27:19.159Z,23.40
2022-08-17T05:29:46.541Z,23.50
2022-08-17T05:32:38.357Z,23.70
2022-08-17T05:35:01.279Z,23.80
2022-08-17T05:37:28.482Z,23.80
2022-08-17T05:39:55.867Z,24.60
2022-08-17T05:42:24.055Z,25.60
2022-08-17T05:44:51.253Z,27.00
2022-08-17T05:47:18.480Z,27.90
2022-08-17T05:49:45.649Z,27.70
2022-08-17T05:52:29.970Z,28.40
2022-08-17T05:54:57.134Z,28.40
2022-08-17T05:57:24.334Z,28.20
2022-08-17T05:59:52.556Z,29.60
2022-08-17T06:02:38.717Z,31.10
2022-08-17T06:05:18.194Z,30.90
2022-08-17T06:07:46.130Z,31.90
2022-08-17T06:10:14.630Z,31.70
2022-08-17T06:13:00.798Z,30.90
2022-08-17T06:15:40.350Z,31.30
2022-08-17T06:18:08.941Z,31.90
2022-08-17T06:20:42.483Z,31.10
2022-08-17T06:23:14.264Z,30.90
2022-08-17T06:25:46.797Z,31.30
2022-08-17T06:28:16.255Z,31.30
2022-08-17T06:30:58.642Z,30.90
2022-08-17T06:33:36.051Z,30.80
2022-08-17T06:36:24.687Z,31.60
2022-08-17T06:39:10.892Z,31.30
2022-08-17T06:41:47.555Z,32.20
2022-08-17T06:44:43.421Z,32.50
2022-08-17T06:47:28.377Z,32.50
2022-08-17T06:49:59.340Z,32.70
2022-08-17T06:52:45.739Z,33.00
2022-08-17T06:55:19.304Z,32.30
2022-08-17T06:57:50.055Z,31.60
2022-08-17T07:00:19.453Z,32.50
2022-08-17T07:02:55.829Z,32.00
2022-08-17T07:05:25.521Z,30.90
2022-08-17T07:08:01.923Z,31.10
2022-08-17T07:10:40.078Z,32.10
2022-08-17T07:13:22.827Z,31.80
2022-08-17T07:15:55.163Z,30.30
2022-08-17T07:18:25.506Z,30.80
2022-08-17T07:20:55.971Z,30.30
2022-08-17T07:23:26.745Z,30.10
2022-08-17T07:26:03.312Z,30.40
2022-08-17T07:28:32.905Z,30.90
2022-08-17T07:31:00.270Z,31.40
2022-08-17T07:33:29.256Z,30.90
2022-08-17T07:35:58.139Z,32.20
2022-08-17T07:38:28.384Z,32.30
2022-08-17T07:41:13.710Z,30.70
2022-08-17T07:43:40.949Z,31.20
2022-08-17T07:46:29.975Z,30.80
2022-08-17T07:49:15.730Z,31.30
2022-08-17T07:51:43.318Z,31.80
2022-08-17T07:54:22.580Z,32.00
2022-08-17T07:56:54.473Z,32.00
2022-08-17T07:59:23.621Z,31.70
2022-08-17T08:01:56.219Z,32.00
2022-08-17T08:05:00.244Z,32.50
2022-08-17T08:07:21.744Z,31.70
2022-08-17T08:10:07.826Z,31.50
2022-08-17T08:12:38.004Z,31.60
2022-08-17T08:15:22.666Z,31.20
2022-08-17T08:17:50.099Z,30.60
2022-08-17T08:20:50.789Z,30.10
2022-08-17T08:23:15.505Z,30.10
2022-08-17T08:26:01.395Z,29.70
2022-08-17T08:28:47.206Z,29.50
2022-08-17T08:31:24.385Z,29.60
2022-08-17T08:34:58.842Z,29.40
2022-08-17T08:37:16.343Z,29.30
2022-08-17T08:39:51.344Z,29.20
2022-08-17T08:42:29.369Z,29.30
2022-08-17T08:45:05.790Z,29.30
2022-08-17T08:47:35.502Z,29.30
2022-08-17T08:50:06.127Z,29.50
2022-08-17T08:52:39.464Z,29.30
2022-08-17T08:55:18.919Z,29.50
2022-08-17T08:58:31.854Z,29.20
2022-08-17T09:00:58.553Z,29.20
2022-08-17T09:03:52.711Z,29.40
2022-08-17T09:06:37.623Z,29.60
2022-08-17T09:09:25.501Z,30.00
2022-08-17T09:12:02.911Z,29.90
2022-08-17T09:14:49.834Z,30.30
2022-08-17T09:17:21.342Z,30.30
2022-08-17T09:19:51.220Z,30.10
2022-08-17T09:22:24.594Z,30.10
2022-08-17T09:24:59.437Z,30.30
2022-08-17T09:27:28.768Z,30.00
2022-08-17T09:29:59.380Z,30.30
2022-08-17T09:32:33.846Z,30.20
2022-08-17T09:35:04.271Z,30.00
2022-08-17T09:37:43.882Z,30.30
2022-08-17T09:40:17.712Z,30.30
2022-08-17T09:43:08.471Z,30.40
2022-08-17T09:45:45.173Z,30.20
2022-08-17T09:48:18.391Z,30.20
2022-08-17T09:50:55.512Z,30.20
2022-08-17T09:53:33.125Z,30.60
2022-08-17T09:56:00.389Z,30.50
2022-08-17T09:58:40.678Z,30.40
2022-08-17T10:01:30.374Z,30.50
2022-08-17T10:04:09.636Z,30.40
2022-08-17T10:06:47.195Z,30.50
2022-08-17T10:09:14.450Z,30.60
2022-08-17T10:12:12.830Z,31.10
2022-08-17T10:14:53.317Z,31.10
2022-08-17T10:17:36.301Z,31.10
2022-08-17T10:20:11.895Z,31.10
2022-08-17T10:23:05.651Z,31.30
2022-08-17T10:26:03.829Z,31.40
2022-08-17T10:28:40.679Z,31.60
2022-08-17T10:33:56.599Z,31.60
2022-08-17T10:36:29.012Z,31.90
2022-08-17T10:39:04.203Z,32.00
2022-08-17T10:41:31.392Z,32.00
2022-08-17T10:44:39.013Z,32.00
2022-08-17T10:47:04.729Z,31.90
2022-08-17T10:49:47.952Z,32.30
2022-08-17T10:52:26.311Z,31.50
2022-08-17T10:54:59.504Z,32.00
2022-08-17T10:57:26.672Z,31.70
2022-08-17T10:59:55.138Z,32.00
2022-08-17T11:02:26.076Z,31.70
2022-08-17T11:05:06.233Z,31.70
2022-08-17T11:07:52.209Z,32.20
2022-08-17T11:10:31.423Z,32.70
2022-08-17T11:13:07.610Z,32.60
2022-08-17T11:16:04.848Z,32.60
2022-08-17T11:19:08.582Z,32.40
2022-08-17T11:21:54.346Z,32.50
2022-08-17T11:24:33.703Z,32.50
2022-08-17T11:27:07.707Z,32.40
2022-08-17T11:29:59.528Z,32.50
2022-08-17T11:32:31.584Z,32.30
2022-08-17T11:35:26.872Z,32.30
2022-08-17T11:38:19.418Z,32.40
2022-08-17T11:40:46.646Z,32.20
2022-08-17T11:43:13.864Z,32.20
2022-08-17T11:45:56.881Z,32.50
2022-08-17T11:49:01.426Z,32.60
2022-08-17T11:51:47.483Z,32.70
2022-08-17T11:54:34.312Z,32.00
2022-08-17T11:57:21.523Z,32.30
2022-08-17T11:59:51.954Z,32.50
2022-08-17T12:02:31.443Z,32.60
2022-08-17T12:05:14.636Z,32.10
2022-08-17T12:07:43.397Z,31.70
2022-08-17T12:10:12.321Z,32.00
2022-08-17T12:12:43.470Z,31.90
2022-08-17T12:15:18.687Z,32.20
2022-08-17T12:17:53.826Z,32.10
2022-08-17T12:20:27.821Z,31.60
2022-08-17T12:23:11.438Z,32.00
2022-08-17T12:25:51.383Z,32.00
2022-08-17T12:28:26.611Z,32.40
2022-08-17T12:30:54.303Z,32.40
2022-08-17T12:33:25.078Z,32.10
2022-08-17T12:35:59.419Z,32.30
2022-08-17T12:38:32.806Z,32.80
2022-08-17T12:41:21.415Z,32.70
2022-08-17T12:43:55.836Z,32.40
2022-08-17T12:46:23.054Z,32.60
2022-08-17T12:48:56.595Z,32.70
2022-08-17T12:51:27.602Z,32.50
2022-08-17T12:53:55.498Z,32.30
2022-08-17T12:56:22.893Z,32.50
2022-08-17T12:58:55.592Z,32.70
2022-08-17T13:01:25.133Z,32.50
2022-08-17T13:03:53.553Z,32.90
2022-08-17T13:06:34.602Z,32.90
2022-08-17T13:09:18.416Z,32.80
2022-08-17T13:11:47.787Z,32.50
2022-08-17T13:14:18.485Z,32.70
2022-08-17T13:16:50.637Z,32.80
2022-08-17T13:19:39.693Z,32.70
2022-08-17T13:22:10.842Z,33.20
2022-08-17T13:24:38.757Z,33.10
2022-08-17T13:27:08.398Z,33.00
2022-08-17T13:29:38.745Z,33.10
2022-08-17T13:32:13.035Z,33.00
2022-08-17T13:35:12.665Z,33.00
2022-08-17T13:37:36.144Z,33.00
2022-08-17T13:40:09.652Z,33.00
2022-08-17T13:42:50.318Z,33.00
2022-08-17T13:45:39.520Z,32.90
2022-08-17T13:48:20.232Z,32.60
2022-08-17T13:50:47.634Z,32.50
2022-08-17T13:53:33.391Z,32.40
2022-08-17T13:56:37.342Z,32.20
2022-08-17T13:58:56.616Z,32.30
2022-08-17T14:01:35.994Z,32.40
2022-08-17T14:04:07.643Z,32.40
2022-08-17T14:06:54.122Z,32.50
2022-08-17T14:09:24.286Z,32.60
2022-08-17T14:11:52.724Z,32.70
2022-08-17T14:14:21.458Z,32.70
2022-08-17T14:16:49.196Z,32.70
2022-08-17T14:19:16.475Z,32.40
2022-08-17T14:21:45.006Z,32.40
2022-08-17T14:24:21.466Z,32.60
2022-08-17T14:26:49.594Z,32.60
2022-08-17T14:29:17.015Z,32.70
2022-08-17T14:31:53.153Z,32.80
2022-08-17T14:34:21.621Z,32.80
2022-08-17T14:36:49.014Z,32.80
2022-08-17T14:39:16.990Z,32.70
2022-08-17T14:41:44.304Z,32.70
2022-08-17T14:44:12.598Z,32.60
2022-08-17T14:46:43.729Z,32.30
2022-08-17T14:49:12.341Z,32.00
2022-08-17T14:51:43.745Z,31.90
2022-08-17T14:54:32.952Z,31.60
2022-08-17T14:57:23.118Z,31.70
2022-08-17T14:59:50.734Z,31.80
2022-08-17T15:02:22.751Z,32.10
2022-08-17T15:05:02.054Z,32.20
2022-08-17T15:07:30.880Z,32.20
2022-08-17T15:10:02.309Z,32.30
2022-08-17T15:12:33.094Z,32.40
2022-08-17T15:15:02.072Z,32.30
2022-08-17T15:17:45.043Z,32.50
2022-08-17T15:20:17.729Z,32.20
2022-08-17T15:22:46.091Z,32.30
2022-08-17T15:25:13.655Z,31.90
2022-08-17T15:27:41.027Z,31.90
2022-08-17T15:30:08.918Z,32.00
2022-08-17T15:32:38.100Z,32.20
2022-08-17T15:35:06.658Z,32.10
2022-08-17T15:37:33.894Z,32.20
2022-08-17T15:40:01.303Z,32.30
2022-08-17T15:42:29.353Z,32.30
2022-08-17T15:44:56.686Z,32.20
2022-08-17T15:47:24.315Z,31.90
2022-08-17T15:49:55.478Z,31.80
2022-08-17T15:52:26.590Z,31.70
2022-08-17T15:54:55.469Z,31.90
2022-08-17T15:57:26.218Z,31.70
2022-08-17T15:59:58.705Z,31.50
2022-08-17T16:03:13.819Z,31.60
2022-08-17T16:05:20.944Z,31.60
2022-08-17T16:07:49.131Z,31.40
2022-08-17T16:10:19.277Z,31.20
2022-08-17T16:12:47.642Z,31.00
2022-08-17T16:15:15.135Z,31.00
2022-08-17T16:17:56.505Z,30.80
2022-08-17T16:20:23.861Z,30.70
2022-08-17T16:22:51.473Z,30.60
2022-08-17T16:25:20.828Z,30.70
2022-08-17T16:27:49.329Z,30.50
2022-08-17T16:30:17.928Z,30.50
2022-08-17T16:32:45.721Z,30.30
2022-08-17T16:35:17.295Z,30.30
2022-08-17T16:37:45.608Z,30.30
2022-08-17T16:40:13.933Z,30.20
2022-08-17T16:42:41.629Z,30.10
2022-08-17T16:45:09.744Z,30.10
2022-08-17T16:47:37.217Z,30.00
2022-08-17T16:50:06.270Z,29.90
2022-08-17T16:52:33.611Z,30.00
2022-08-17T16:55:02.180Z,30.00
2022-08-17T16:57:29.784Z,29.90
2022-08-17T16:59:57.197Z,29.90
2022-08-17T17:02:36.383Z,30.00
2022-08-17T17:05:25.210Z,29.80
2022-08-17T17:07:55.592Z,29.50
2022-08-17T17:10:24.398Z,29.50
2022-08-17T17:13:02.713Z,29.30
2022-08-17T17:15:42.447Z,29.10
2022-08-17T17:18:11.565Z,29.10
2022-08-17T17:20:45.752Z,28.90
2022-08-17T17:23:14.804Z,28.80
2022-08-17T17:26:08.205Z,28.90
2022-08-17T17:28:47.487Z,28.80
2022-08-17T17:31:17.471Z,28.80
2022-08-17T17:34:11.276Z,28.80
2022-08-17T17:36:45.433Z,28.80
2022-08-17T17:39:12.589Z,28.60
2022-08-17T17:41:47.194Z,28.60
2022-08-17T17:44:17.976Z,28.50
2022-08-17T17:46:50.662Z,28.40
2022-08-17T17:49:18.797Z,28.10
2022-08-17T17:52:07.809Z,28.00
2022-08-17T17:54:47.586Z,28.00
2022-08-17T17:57:26.795Z,27.80
2022-08-17T17:59:59.793Z,27.70
2022-08-17T18:02:51.876Z,27.60
2022-08-17T18:05:19.552Z,26.80
